Time;durP1;ratioP1;P1;durP2;ratioP2;P2;SDS_P1;SDS_P2;PMS_P1;PMS_P2;Temp;Humidity;BMP_temperature;BMP_pressure;BME280_temperature;BME280_humidity;BME280_pressure;Samples;Min_cycle;Max_cycle;Signal;HPM_P1;HPM_P2
2023/04/15 00:01:28;;;;;;;8.50;5.38;;;8.80;76.20;;;;;;5059805;28;20013;-71
2023/04/15 00:03:55;;;;;;;7.40;4.75;;;8.80;76.00;;;;;;5064781;28;20033;-71
2023/04/15 00:06:21;;;;;;;7.43;4.63;;;8.80;75.90;;;;;;5065483;28;20381;-71
2023/04/15 00:08:49;;;;;;;7.78;4.50;;;8.80;75.60;;;;;;5065547;28;20025;-71
2023/04/15 00:11:15;;;;;;;8.75;4.38;;;8.80;75.30;;;;;;5057788;28;20028;-71
2023/04/15 00:13:42;;;;;;;7.65;4.40;;;8.90;74.20;;;;;;5055283;28;20036;-71
2023/04/15 00:16:09;;;;;;;7.45;4.53;;;8.90;74.20;;;;;;5055433;28;20316;-71
2023/04/15 00:18:36;;;;;;;6.70;4.30;;;8.90;74.20;;;;;;5054091;28;20404;-71
2023/04/15 00:21:03;;;;;;;6.60;4.35;;;8.90;74.00;;;;;;5055070;28;20100;-71
2023/04/15 00:23:30;;;;;;;7.47;4.40;;;8.90;74.00;;;;;;5055645;28;20021;-71
2023/04/15 00:25:56;;;;;;;8.35;4.00;;;8.90;74.00;;;;;;5055105;28;20029;-71
2023/04/15 00:28:22;;;;;;;6.55;3.97;;;8.90;74.10;;;;;;5055604;28;20437;-72
2023/04/15 00:30:49;;;;;;;6.13;3.50;;;8.90;74.20;;;;;;5055528;28;20036;-71
2023/04/15 00:33:15;;;;;;;8.63;4.28;;;8.80;74.10;;;;;;5054855;28;20024;-71
2023/04/15 00:35:41;;;;;;;6.35;3.65;;;8.80;74.10;;;;;;5055289;28;20027;-71
2023/04/15 00:38:07;;;;;;;6.22;4.20;;;8.80;74.10;;;;;;5054715;28;20052;-72
2023/04/15 00:40:34;;;;;;;5.88;3.58;;;8.70;74.00;;;;;;5054890;28;20025;-71
2023/04/15 00:43:00;;;;;;;7.55;4.78;;;8.80;74.10;;;;;;5054941;28;20037;-71
2023/04/15 00:45:27;;;;;;;6.05;4.28;;;8.70;74.50;;;;;;5055109;28;20068;-71
2023/04/15 00:47:53;;;;;;;7.75;4.28;;;8.60;74.70;;;;;;5055095;28;20060;-71
2023/04/15 00:50:18;;;;;;;9.10;4.20;;;8.40;75.20;;;;;;5055021;28;20071;-72
2023/04/15 00:52:45;;;;;;;6.18;3.92;;;8.30;75.70;;;;;;5055099;28;20037;-71
2023/04/15 00:55:11;;;;;;;5.95;3.92;;;8.30;75.60;;;;;;5055292;28;20021;-71
2023/04/15 00:57:38;;;;;;;6.25;3.85;;;8.20;75.20;;;;;;5054634;28;20033;-71
2023/04/15 01:00:06;;;;;;;7.00;4.05;;;8.30;74.60;;;;;;5055034;28;20033;-71
2023/04/15 01:02:34;;;;;;;7.00;4.15;;;8.30;75.10;;;;;;5054660;28;20029;-71
2023/04/15 01:05:00;;;;;;;6.20;4.22;;;8.30;75.30;;;;;;5053762;28;20346;-71
2023/04/15 01:07:26;;;;;;;6.35;4.28;;;8.20;75.50;;;;;;5054897;28;20029;-71
2023/04/15 01:09:52;;;;;;;8.82;4.70;;;8.10;75.50;;;;;;5054592;28;20465;-71
2023/04/15 01:12:19;;;;;;;6.82;4.40;;;8.00;76.40;;;;;;5054554;28;20056;-71
2023/04/15 01:14:45;;;;;;;7.00;4.22;;;8.00;76.40;;;;;;5054833;28;20025;-71
2023/04/15 01:17:12;;;;;;;7.93;4.57;;;7.90;77.20;;;;;;5055010;28;20051;-71
2023/04/15 01:19:38;;;;;;;7.78;4.47;;;7.90;77.00;;;;;;5054472;28;20395;-69
2023/04/15 01:22:04;;;;;;;7.45;4.60;;;7.90;77.40;;;;;;5054330;28;20033;-69
2023/04/15 01:24:36;;;;;;;8.77;4.82;;;7.90;77.40;;;;;;5054730;28;20021;-70
2023/04/15 01:27:04;;;;;;;9.55;5.40;;;7.90;77.60;;;;;;5054649;28;20033;-70
2023/04/15 01:29:31;;;;;;;9.32;4.93;;;7.90;77.20;;;;;;5054452;28;20166;-70
2023/04/15 01:31:57;;;;;;;8.57;4.75;;;7.90;77.30;;;;;;5053347;28;20366;-69
2023/04/15 01:36:52;;;;;;;8.35;4.72;;;7.80;77.40;;;;;;5054547;28;20064;-70
2023/04/15 01:39:18;;;;;;;8.65;5.28;;;7.80;77.40;;;;;;5054591;28;20029;-70
2023/04/15 01:41:44;;;;;;;6.38;4.38;;;7.80;77.30;;;;;;5054221;28;20028;-69
2023/04/15 01:44:10;;;;;;;7.95;4.65;;;7.80;77.30;;;;;;5054877;28;20021;-70
2023/04/15 01:46:36;;;;;;;6.45;4.38;;;7.80;77.30;;;;;;5057885;28;20029;-70
2023/04/15 01:49:02;;;;;;;8.23;4.43;;;7.90;77.30;;;;;;5057947;28;20063;-70
2023/04/15 01:51:28;;;;;;;7.53;4.40;;;7.80;77.20;;;;;;5057879;28;20025;-69
2023/04/15 01:53:55;;;;;;;6.30;4.13;;;7.80;77.10;;;;;;5057808;28;20359;-70
2023/04/15 01:56:23;;;;;;;7.45;4.63;;;7.80;77.40;;;;;;5057973;28;20039;-70
2023/04/15 01:58:48;;;;;;;8.82;5.03;;;7.80;77.30;;;;;;5057905;28;20033;-70
2023/04/15 02:01:15;;;;;;;7.45;4.50;;;7.80;77.70;;;;;;5057848;28;20071;-70
2023/04/15 02:03:41;;;;;;;6.80;4.32;;;7.70;77.80;;;;;;5057877;28;20092;-69
2023/04/15 02:06:07;;;;;;;8.77;4.57;;;7.70;77.50;;;;;;5057855;28;20489;-70
2023/04/15 02:08:33;;;;;;;6.70;4.32;;;7.70;77.20;;;;;;5057827;28;20350;-69
2023/04/15 02:11:00;;;;;;;6.45;3.97;;;7.80;77.50;;;;;;5057690;28;20025;-70
2023/04/15 02:13:26;;;;;;;6.05;3.88;;;7.70;77.60;;;;;;5057350;28;20032;-69
2023/04/15 02:15:53;;;;;;;6.47;3.97;;;7.70;78.00;;;;;;5057354;28;20150;-70
2023/04/15 02:18:19;;;;;;;6.78;3.90;;;7.70;77.90;;;;;;5057545;28;20021;-69
2023/04/15 02:20:45;;;;;;;7.30;3.83;;;7.70;78.20;;;;;;5057237;28;20017;-69
2023/04/15 02:23:12;;;;;;;4.97;3.50;;;7.70;77.90;;;;;;5057274;28;20087;-70
2023/04/15 02:25:38;;;;;;;5.88;3.60;;;7.70;77.40;;;;;;5057264;28;20426;-70
2023/04/15 02:28:05;;;;;;;7.43;3.53;;;7.70;77.30;;;;;;5057409;28;20029;-69
2023/04/15 02:30:32;;;;;;;6.35;3.78;;;7.80;77.30;;;;;;5057053;28;20035;-70
2023/04/15 02:32:59;;;;;;;5.32;3.78;;;7.80;77.00;;;;;;5057443;28;20033;-69
2023/04/15 02:35:24;;;;;;;7.45;3.67;;;7.80;77.00;;;;;;5057266;28;20025;-69
2023/04/15 02:37:51;;;;;;;7.78;4.18;;;7.70;77.20;;;;;;5056709;28;20144;-70
2023/04/15 02:40:17;;;;;;;7.40;3.15;;;7.70;76.90;;;;;;5056847;28;20032;-69
2023/04/15 02:42:43;;;;;;;5.53;3.13;;;7.70;76.90;;;;;;5056911;28;20107;-70
2023/04/15 02:45:10;;;;;;;7.47;3.47;;;7.70;76.50;;;;;;5056902;28;20359;-69
2023/04/15 02:47:39;;;;;;;5.20;3.22;;;7.70;76.60;;;;;;5057109;28;20029;-70
2023/04/15 02:50:11;;;;;;;5.25;3.63;;;7.70;76.70;;;;;;5056693;28;20043;-70
2023/04/15 02:52:40;;;;;;;5.85;3.50;;;7.60;76.80;;;;;;5056688;28;20343;-69
2023/04/15 02:55:07;;;;;;;7.25;3.70;;;7.60;76.70;;;;;;5056597;28;20450;-70
2023/04/15 02:57:35;;;;;;;5.72;3.33;;;7.60;76.60;;;;;;5056817;28;20108;-69
2023/04/15 03:00:01;;;;;;;5.15;2.60;;;7.60;76.70;;;;;;5056517;28;20025;-69
2023/04/15 03:02:27;;;;;;;6.10;3.67;;;7.60;76.50;;;;;;5055557;28;20039;-69
2023/04/15 03:04:54;;;;;;;4.57;3.17;;;7.60;76.70;;;;;;5057055;28;20399;-69
2023/04/15 03:07:19;;;;;;;8.35;3.58;;;7.60;76.40;;;;;;5056751;28;20032;-70
2023/04/15 03:09:46;;;;;;;6.22;3.35;;;7.50;76.70;;;;;;5056382;28;20043;-70
2023/04/15 03:12:12;;;;;;;5.38;3.60;;;7.50;76.80;;;;;;5056535;28;20057;-69
2023/04/15 03:14:38;;;;;;;6.35;3.63;;;7.40;76.70;;;;;;5056302;28;20052;-70
2023/04/15 03:17:04;;;;;;;6.20;3.70;;;7.40;77.10;;;;;;5056148;28;20037;-69
2023/04/15 03:19:30;;;;;;;8.35;3.50;;;7.40;77.40;;;;;;5056227;28;20032;-69
2023/04/15 03:21:56;;;;;;;6.97;3.47;;;7.40;77.40;;;;;;5056174;28;20117;-70
2023/04/15 03:24:23;;;;;;;5.65;3.45;;;7.40;77.30;;;;;;5056348;28;20079;-69
2023/04/15 03:26:49;;;;;;;4.60;3.20;;;7.40;77.20;;;;;;5056088;28;20439;-70
2023/04/15 03:29:15;;;;;;;6.13;3.72;;;7.50;77.00;;;;;;5056271;28;20450;-70
2023/04/15 03:31:41;;;;;;;4.85;3.55;;;7.50;77.30;;;;;;5056006;28;20083;-69
2023/04/15 03:34:07;;;;;;;5.95;3.70;;;7.50;77.40;;;;;;5056177;28;20029;-69
2023/04/15 03:36:33;;;;;;;7.90;3.85;;;7.50;77.30;;;;;;5055570;28;20107;-72
2023/04/15 03:39:00;;;;;;;6.05;3.75;;;7.50;77.30;;;;;;5055849;28;20146;-69
2023/04/15 03:41:27;;;;;;;6.18;3.55;;;7.50;77.60;;;;;;5055641;28;20029;-72
2023/04/15 03:43:53;;;;;;;6.63;3.40;;;7.40;77.20;;;;;;5056089;28;20021;-71
2023/04/15 03:46:20;;;;;;;6.68;3.60;;;7.50;77.10;;;;;;5055821;28;20078;-71
2023/04/15 03:48:46;;;;;;;4.78;3.17;;;7.40;77.00;;;;;;5055659;28;20082;-71
2023/04/15 03:51:12;;;;;;;4.47;3.00;;;7.40;77.20;;;;;;5055647;28;20077;-71
2023/04/15 03:53:38;;;;;;;8.88;3.33;;;7.40;77.10;;;;;;5055912;28;20052;-71
2023/04/15 03:56:05;;;;;;;5.28;3.10;;;7.40;77.10;;;;;;5055534;28;20063;-71
2023/04/15 03:58:31;;;;;;;6.45;3.72;;;7.40;76.90;;;;;;5055695;28;20025;-71
2023/04/15 04:00:56;;;;;;;5.63;3.38;;;7.40;77.00;;;;;;5055712;28;20025;-71
2023/04/15 04:03:22;;;;;;;5.50;3.40;;;7.40;77.10;;;;;;5055726;28;20029;-71
2023/04/15 04:05:48;;;;;;;6.40;4.07;;;7.40;77.10;;;;;;5055483;28;20103;-71
2023/04/15 04:08:15;;;;;;;7.70;4.47;;;7.40;77.20;;;;;;5054340;28;20032;-71
2023/04/15 04:10:41;;;;;;;9.30;4.18;;;7.40;77.20;;;;;;5055542;28;20048;-71
2023/04/15 04:13:07;;;;;;;7.38;4.40;;;7.40;77.10;;;;;;5055307;28;20033;-71
2023/04/15 04:15:33;;;;;;;7.22;4.32;;;7.40;77.30;;;;;;5054326;28;20029;-71
2023/04/15 04:17:59;;;;;;;8.05;4.70;;;7.40;77.50;;;;;;5055431;28;20338;-71
2023/04/15 04:20:25;;;;;;;8.23;4.45;;;7.40;77.70;;;;;;5055456;28;20044;-71
2023/04/15 04:22:51;;;;;;;9.73;4.30;;;7.50;77.30;;;;;;5055123;28;20096;-71
2023/04/15 04:25:17;;;;;;;7.88;4.28;;;7.40;77.20;;;;;;5055667;28;20017;-71
2023/04/15 04:27:44;;;;;;;9.00;5.00;;;7.40;77.30;;;;;;5055091;28;20078;-71
2023/04/15 04:30:10;;;;;;;7.13;4.22;;;7.40;77.50;;;;;;5055223;28;20078;-71
2023/04/15 04:32:36;;;;;;;5.55;3.50;;;7.50;77.20;;;;;;5055560;28;20029;-71
2023/04/15 04:35:03;;;;;;;8.40;4.03;;;7.50;76.90;;;;;;5055284;28;20028;-71
2023/04/15 04:37:29;;;;;;;4.97;3.40;;;7.50;76.70;;;;;;5054764;28;20045;-71
2023/04/15 04:39:55;;;;;;;5.85;3.67;;;7.50;76.70;;;;;;5054903;28;20155;-71
2023/04/15 04:42:21;;;;;;;7.00;4.00;;;7.50;76.50;;;;;;5055161;28;20021;-71
2023/04/15 04:44:47;;;;;;;7.43;4.10;;;7.50;76.30;;;;;;5054957;28;20021;-71
2023/04/15 04:47:13;;;;;;;6.43;3.72;;;7.50;76.20;;;;;;5055093;28;20031;-71
2023/04/15 04:49:40;;;;;;;6.20;3.33;;;7.60;76.00;;;;;;5055429;28;20461;-71
2023/04/15 04:52:06;;;;;;;4.70;3.38;;;7.60;76.00;;;;;;5054704;28;20039;-71
2023/04/15 04:54:32;;;;;;;8.35;3.42;;;7.60;75.60;;;;;;5054833;28;20054;-71
2023/04/15 04:56:58;;;;;;;5.65;3.50;;;7.70;75.50;;;;;;5055067;28;20013;-71
2023/04/15 04:59:24;;;;;;;4.63;3.13;;;7.80;75.40;;;;;;5055283;28;20128;-71
2023/04/15 05:01:50;;;;;;;5.43;3.20;;;7.90;75.30;;;;;;5054783;28;20025;-71
2023/04/15 05:04:16;;;;;;;5.05;3.45;;;7.90;75.10;;;;;;5053839;28;20366;-71
2023/04/15 05:06:42;;;;;;;4.90;3.10;;;7.90;74.50;;;;;;5054727;28;20021;-71
2023/04/15 05:09:08;;;;;;;4.38;3.00;;;8.00;74.00;;;;;;5054670;28;20056;-71
2023/04/15 05:11:34;;;;;;;5.18;3.22;;;8.00;74.10;;;;;;5055146;28;20450;-71
2023/04/15 05:14:01;;;;;;;3.95;2.80;;;8.10;73.90;;;;;;5054617;28;20013;-71
2023/04/15 05:16:27;;;;;;;4.28;2.60;;;8.20;73.90;;;;;;5054554;28;20446;-71
2023/04/15 05:18:53;;;;;;;5.60;2.75;;;8.30;73.80;;;;;;5055075;28;20044;-71
2023/04/15 05:21:19;;;;;;;3.60;2.45;;;8.50;74.00;;;;;;5058695;28;20083;-71
2023/04/15 05:23:46;;;;;;;3.55;2.42;;;8.90;73.70;;;;;;5058689;28;20327;-71
2023/04/15 05:26:11;;;;;;;4.30;2.70;;;9.40;72.00;;;;;;5058422;28;20040;-71
2023/04/15 05:28:37;;;;;;;4.50;2.67;;;9.60;71.40;;;;;;5058620;28;20110;-71
2023/04/15 05:31:03;;;;;;;4.78;2.92;;;9.70;69.70;;;;;;5058415;28;20447;-71
2023/04/15 05:33:29;;;;;;;3.67;2.55;;;9.80;69.70;;;;;;5058225;28;20029;-71
2023/04/15 05:35:55;;;;;;;4.35;2.78;;;9.80;69.20;;;;;;5058199;28;20465;-71
2023/04/15 05:38:21;;;;;;;4.60;3.20;;;9.80;69.00;;;;;;5058014;28;20048;-71
2023/04/15 05:40:47;;;;;;;5.43;3.08;;;9.70;68.70;;;;;;5058558;28;20033;-71
2023/04/15 05:43:13;;;;;;;4.75;3.10;;;9.60;69.20;;;;;;5058575;28;20032;-71
2023/04/15 05:45:39;;;;;;;6.40;3.65;;;9.60;69.60;;;;;;5058017;28;20100;-71
2023/04/15 05:48:05;;;;;;;6.88;3.83;;;9.50;70.10;;;;;;5057981;28;20025;-71
2023/04/15 05:50:31;;;;;;;5.90;3.63;;;9.40;69.90;;;;;;5058184;28;20029;-71
2023/04/15 05:52:57;;;;;;;9.70;4.47;;;9.40;70.10;;;;;;5057947;28;20029;-71
2023/04/15 05:55:23;;;;;;;5.93;3.90;;;9.40;70.50;;;;;;5057891;28;20047;-71
2023/04/15 05:57:48;;;;;;;7.78;4.50;;;9.40;70.60;;;;;;5056783;28;20029;-71
2023/04/15 06:00:15;;;;;;;6.45;3.97;;;9.50;71.00;;;;;;5057732;28;20091;-71
2023/04/15 06:02:41;;;;;;;7.65;3.95;;;9.50;70.90;;;;;;5058053;28;20021;-71
2023/04/15 06:05:08;;;;;;;6.75;4.22;;;9.70;70.80;;;;;;5057957;28;20029;-71
2023/04/15 06:07:35;;;;;;;8.32;4.70;;;9.80;71.00;;;;;;5057916;28;20029;-71
2023/04/15 06:10:02;;;;;;;6.80;4.47;;;10.00;70.80;;;;;;5057645;28;20029;-73
2023/04/15 06:12:28;;;;;;;6.85;3.97;;;10.20;70.40;;;;;;5057556;28;20103;-69
2023/04/15 06:14:54;;;;;;;15.75;4.65;;;10.50;70.40;;;;;;5058050;28;20116;-70
2023/04/15 06:17:20;;;;;;;11.80;4.40;;;10.90;70.00;;;;;;5057455;28;20025;-70
2023/04/15 06:19:46;;;;;;;9.70;4.93;;;11.10;68.70;;;;;;5057682;28;20076;-66
2023/04/15 06:22:12;;;;;;;10.27;5.05;;;11.30;68.30;;;;;;5057804;28;20052;-65
2023/04/15 06:24:38;;;;;;;11.15;4.63;;;11.70;67.80;;;;;;5057640;28;20102;-65
2023/04/15 06:27:03;;;;;;;7.72;4.75;;;12.10;67.50;;;;;;5057623;28;20103;-68
2023/04/15 06:29:29;;;;;;;8.68;5.05;;;12.60;66.50;;;;;;5057722;28;20029;-68
2023/04/15 06:31:56;;;;;;;8.13;4.85;;;13.20;64.90;;;;;;5056732;28;20553;-67
2023/04/15 06:34:21;;;;;;;8.23;5.30;;;13.90;63.80;;;;;;5056300;28;20032;-68
2023/04/15 06:36:47;;;;;;;11.70;6.03;;;14.70;62.60;;;;;;5056801;28;20049;-68
2023/04/15 06:39:13;;;;;;;9.35;5.45;;;15.40;60.20;;;;;;5057213;28;20061;-68
2023/04/15 06:41:39;;;;;;;9.52;5.78;;;15.90;58.00;;;;;;5057063;28;20021;-68
2023/04/15 06:44:05;;;;;;;10.63;5.75;;;16.10;57.90;;;;;;5057023;28;20025;-68
2023/04/15 06:46:31;;;;;;;10.07;5.90;;;16.00;56.90;;;;;;5056951;28;20438;-68
2023/04/15 06:48:57;;;;;;;11.27;6.57;;;15.70;57.40;;;;;;5056953;28;20079;-68
2023/04/15 06:51:23;;;;;;;11.45;6.80;;;15.40;58.80;;;;;;5056981;28;20013;-68
2023/04/15 06:53:49;;;;;;;10.35;6.63;;;15.00;59.50;;;;;;5057161;28;20025;-68
2023/04/15 06:56:15;;;;;;;9.50;6.25;;;14.90;60.30;;;;;;5056732;28;20071;-68
2023/04/15 06:58:41;;;;;;;13.30;6.47;;;14.90;60.90;;;;;;5056681;28;20028;-68
2023/04/15 07:01:07;;;;;;;12.45;6.30;;;15.10;61.10;;;;;;5055736;28;20017;-68
2023/04/15 07:03:32;;;;;;;12.85;6.47;;;15.40;60.20;;;;;;5057033;28;20044;-68
2023/04/15 07:06:00;;;;;;;10.88;6.03;;;15.70;59.50;;;;;;5056748;28;20536;-68
2023/04/15 07:08:26;;;;;;;10.32;5.55;;;15.90;59.70;;;;;;5056567;28;20036;-68
2023/04/15 07:10:52;;;;;;;11.25;5.38;;;16.30;59.20;;;;;;5056683;28;20020;-68
2023/04/15 07:13:18;;;;;;;10.43;5.57;;;16.60;57.70;;;;;;5056776;28;20462;-68
2023/04/15 07:15:44;;;;;;;8.60;5.68;;;16.60;57.20;;;;;;5056356;28;20139;-68
2023/04/15 07:18:10;;;;;;;10.07;5.85;;;16.60;58.40;;;;;;5056256;28;20029;-68
2023/04/15 07:20:36;;;;;;;10.82;5.57;;;16.30;58.50;;;;;;5056313;28;20021;-68
2023/04/15 07:23:03;;;;;;;8.77;5.35;;;16.10;59.40;;;;;;5056557;28;20025;-68
2023/04/15 07:25:28;;;;;;;10.20;5.30;;;15.90;60.20;;;;;;5056169;28;20512;-68
2023/04/15 07:27:55;;;;;;;7.78;5.22;;;15.80;59.90;;;;;;5056171;28;20037;-68
2023/04/15 07:30:21;;;;;;;9.25;5.25;;;15.70;59.60;;;;;;5056000;28;20069;-68
2023/04/15 07:32:46;;;;;;;9.18;5.35;;;15.60;60.40;;;;;;5056298;28;20025;-68
2023/04/15 07:35:13;;;;;;;7.68;4.88;;;15.40;60.40;;;;;;5056225;28;20025;-68
2023/04/15 07:37:39;;;;;;;7.68;5.13;;;15.20;60.60;;;;;;5055790;28;20090;-68
2023/04/15 07:40:06;;;;;;;8.13;5.25;;;15.10;61.50;;;;;;5056172;28;20025;-68
2023/04/15 07:42:33;;;;;;;10.27;5.18;;;15.10;62.10;;;;;;5055346;28;20025;-68
2023/04/15 07:44:59;;;;;;;9.20;5.60;;;15.20;62.10;;;;;;5038753;28;20025;-68
2023/04/15 07:47:26;;;;;;;8.60;5.40;;;15.20;61.60;;;;;;5056066;28;20036;-68
2023/04/15 07:49:52;;;;;;;6.07;4.47;;;15.30;61.30;;;;;;5055810;28;20024;-68
2023/04/15 07:52:18;;;;;;;8.15;4.53;;;15.30;61.10;;;;;;5055619;28;20036;-68
2023/04/15 07:54:44;;;;;;;8.60;4.40;;;15.20;60.20;;;;;;5055946;28;20021;-68
2023/04/15 07:57:10;;;;;;;7.47;4.72;;;15.20;60.10;;;;;;5055833;28;20029;-68
2023/04/15 07:59:36;;;;;;;6.00;4.00;;;15.10;60.10;;;;;;5055869;28;20028;-68
2023/04/15 08:02:02;;;;;;;8.13;4.43;;;15.00;60.80;;;;;;5055699;28;20347;-68
2023/04/15 08:04:28;;;;;;;7.32;4.70;;;15.00;60.70;;;;;;5055727;28;20021;-68
2023/04/15 08:06:54;;;;;;;7.28;4.70;;;14.90;61.30;;;;;;5055575;28;20047;-68
2023/04/15 08:09:20;;;;;;;7.68;4.80;;;14.90;62.10;;;;;;5055695;28;20072;-68
2023/04/15 08:11:49;;;;;;;7.50;4.75;;;14.90;61.80;;;;;;5055497;28;20358;-68
2023/04/15 08:14:15;;;;;;;8.73;4.57;;;14.90;62.00;;;;;;5055635;28;20029;-68
2023/04/15 08:16:41;;;;;;;5.18;3.75;;;14.90;62.00;;;;;;5054350;28;20021;-68
2023/04/15 08:19:07;;;;;;;6.53;4.10;;;15.10;62.10;;;;;;5055896;28;20075;-68
2023/04/15 08:21:33;;;;;;;8.75;4.60;;;15.30;61.60;;;;;;5055375;28;20021;-68
2023/04/15 08:24:00;;;;;;;7.75;4.50;;;15.40;61.00;;;;;;5055273;28;20104;-68
2023/04/15 08:26:26;;;;;;;8.45;4.53;;;15.50;60.70;;;;;;5054211;28;20025;-68
2023/04/15 08:28:52;;;;;;;7.20;4.80;;;15.60;61.30;;;;;;5055186;28;20350;-68
2023/04/15 08:31:18;;;;;;;7.55;4.93;;;15.70;61.60;;;;;;5055273;28;20366;-68
2023/04/15 08:33:45;;;;;;;7.38;4.70;;;15.80;60.40;;;;;;5054114;28;20515;-68
2023/04/15 08:36:12;;;;;;;8.23;5.07;;;15.80;60.10;;;;;;5054815;28;20362;-69
2023/04/15 08:38:38;;;;;;;5.53;3.90;;;15.90;61.10;;;;;;5055074;28;20029;-68
2023/04/15 08:41:15;;;;;;;6.80;4.18;;;16.10;59.60;;;;;;5055032;28;20017;-68
2023/04/15 08:43:50;;;;;;;10.05;5.38;;;16.10;59.10;;;;;;5055357;28;20096;-68
2023/04/15 08:46:17;;;;;;;7.70;4.80;;;16.20;59.00;;;;;;5054097;28;20017;-68
2023/04/15 08:48:45;;;;;;;9.70;5.00;;;16.20;59.40;;;;;;5037518;28;20064;-68
2023/04/15 08:51:14;;;;;;;7.25;4.18;;;16.10;59.50;;;;;;5054933;28;20024;-68
2023/04/15 08:53:42;;;;;;;6.38;4.15;;;16.00;59.70;;;;;;5055579;28;20039;-68
2023/04/15 08:56:09;;;;;;;7.60;4.90;;;16.00;59.80;;;;;;5058899;28;20032;-69
2023/04/15 08:58:36;;;;;;;6.10;3.85;;;16.20;59.70;;;;;;5058905;28;20029;-69
2023/04/15 09:01:02;;;;;;;5.20;3.80;;;16.30;59.90;;;;;;5059233;28;20027;-68
2023/04/15 09:03:29;;;;;;;8.05;4.30;;;16.40;59.50;;;;;;5059214;28;20408;-69
2023/04/15 09:05:56;;;;;;;10.27;4.35;;;16.40;59.20;;;;;;5041459;28;20393;-68
2023/04/15 09:08:22;;;;;;;7.63;4.15;;;16.40;59.20;;;;;;5057886;28;20039;-68
2023/04/15 09:10:49;;;;;;;5.45;3.78;;;16.40;58.80;;;;;;5058723;28;20029;-68
2023/04/15 09:13:15;;;;;;;6.00;4.25;;;16.30;58.70;;;;;;5058704;28;20036;-68
2023/04/15 09:15:40;;;;;;;7.90;4.30;;;16.30;59.20;;;;;;5058764;28;20024;-68
2023/04/15 09:18:06;;;;;;;6.97;4.10;;;16.40;59.80;;;;;;5058658;28;20032;-68
2023/04/15 09:20:42;;;;;;;8.02;4.35;;;16.40;60.00;;;;;;5058855;28;20036;-68
2023/04/15 09:23:16;;;;;;;6.32;4.05;;;16.50;59.50;;;;;;5057605;28;20461;-68
2023/04/15 09:25:42;;;;;;;;;;;16.50;59.40;;;;;;5059361;28;20446;-68
2023/04/15 09:28:09;;;;;;;10.95;4.78;;;16.60;58.40;;;;;;5058490;28;19905;-69
2023/04/15 09:30:35;;;;;;;7.13;4.30;;;16.50;58.20;;;;;;5058669;28;20025;-68
2023/04/15 09:33:09;;;;;;;6.88;4.28;;;16.60;59.10;;;;;;5058377;28;20454;-67
2023/04/15 09:35:36;;;;;;;6.63;4.72;;;16.50;58.70;;;;;;5057323;28;20033;-67
2023/04/15 09:38:05;;;;;;;9.23;4.65;;;16.50;58.60;;;;;;5058105;28;20044;-67
2023/04/15 09:40:32;;;;;;;6.55;4.72;;;16.40;59.10;;;;;;5058211;28;20343;-66
2023/04/15 09:42:59;;;;;;;9.32;5.18;;;16.30;59.30;;;;;;5058778;28;20025;-67
2023/04/15 09:45:25;;;;;;;8.15;4.60;;;16.30;59.80;;;;;;5057547;28;20078;-66
2023/04/15 09:47:51;;;;;;;4.95;3.92;;;16.40;59.60;;;;;;5058092;28;20115;-66
2023/04/15 09:50:19;;;;;;;8.75;4.35;;;16.40;59.40;;;;;;5057958;28;20454;-66
2023/04/15 09:52:45;;;;;;;7.00;4.50;;;16.50;59.10;;;;;;5057962;28;20036;-66
2023/04/15 09:55:14;;;;;;;5.70;3.80;;;16.50;59.30;;;;;;5058178;28;20024;-67
2023/04/15 09:57:42;;;;;;;6.32;4.40;;;16.60;59.50;;;;;;5058081;28;20044;-66
2023/04/15 10:00:10;;;;;;;9.73;4.40;;;16.70;58.80;;;;;;5058019;28;20029;-67
2023/04/15 10:02:43;;;;;;;5.93;4.03;;;16.80;58.80;;;;;;5057983;28;20047;-67
2023/04/15 10:05:14;;;;;;;6.45;4.15;;;16.80;57.70;;;;;;5057290;28;20032;-66
2023/04/15 10:07:41;;;;;;;9.05;4.15;;;16.70;57.70;;;;;;5057590;28;20072;-66
2023/04/15 10:10:08;;;;;;;6.97;4.10;;;16.60;57.20;;;;;;5057571;28;20033;-67
2023/04/15 10:12:37;;;;;;;6.38;4.70;;;16.50;57.90;;;;;;5057540;28;20028;-67
2023/04/15 10:15:04;;;;;;;6.25;3.50;;;16.60;58.70;;;;;;5056675;28;20353;-67
2023/04/15 10:17:34;;;;;;;4.10;3.25;;;16.80;58.60;;;;;;5056435;28;20029;-66
2023/04/15 10:20:01;;;;;;;6.05;3.28;;;16.80;56.90;;;;;;5057437;28;20032;-66
2023/04/15 10:22:28;;;;;;;5.13;3.78;;;16.90;56.40;;;;;;5040009;28;20450;-66
2023/04/15 10:24:56;;;;;;;6.93;3.80;;;16.90;56.60;;;;;;5056485;28;20021;-66
2023/04/15 10:27:23;;;;;;;6.28;4.00;;;16.90;55.50;;;;;;5057551;28;20076;-66
2023/04/15 10:29:50;;;;;;;8.60;4.13;;;16.90;56.60;;;;;;5057483;28;20059;-66
2023/04/15 10:32:20;;;;;;;4.38;3.63;;;17.00;56.20;;;;;;5057376;28;20141;-66
2023/04/15 10:34:48;;;;;;;9.18;4.32;;;17.10;55.70;;;;;;5057133;28;20040;-66
2023/04/15 10:37:20;;;;;;;4.80;4.13;;;17.10;56.10;;;;;;5056979;28;20049;-65
2023/04/15 10:39:46;;;;;;;8.40;4.63;;;17.10;55.10;;;;;;5057432;28;20033;-66
2023/04/15 10:42:18;;;;;;;6.90;4.70;;;17.10;56.00;;;;;;5057045;28;20021;-66
2023/04/15 10:44:48;;;;;;;12.98;5.90;;;17.20;56.00;;;;;;5056369;28;20032;-66
2023/04/15 10:47:19;;;;;;;6.22;4.25;;;17.30;56.10;;;;;;5057000;28;20112;-66
2023/04/15 10:49:46;;;;;;;5.07;3.47;;;17.30;55.70;;;;;;5057558;28;20458;-67
2023/04/15 10:52:14;;;;;;;5.07;3.80;;;17.30;55.70;;;;;;5056925;28;20025;-66
2023/04/15 10:54:40;;;;;;;6.45;3.50;;;17.40;55.80;;;;;;5057259;28;20025;-65
2023/04/15 10:57:21;;;;;;;5.10;3.40;;;17.40;54.30;;;;;;5057313;28;20067;-66
2023/04/15 11:00:03;;;;;;;5.03;3.28;;;17.40;53.90;;;;;;5056813;28;20071;-67
2023/04/15 11:02:55;;;;;;;3.88;3.05;;;17.40;53.70;;;;;;5056993;28;20025;-65
2023/04/15 11:05:42;;;;;;;8.80;3.75;;;17.40;53.50;;;;;;5056784;28;20023;-64
2023/04/15 11:08:12;;;;;;;5.00;3.40;;;17.40;53.80;;;;;;5057132;28;20035;-66
2023/04/15 11:10:37;;;;;;;5.07;3.80;;;17.50;53.20;;;;;;5056908;28;20040;-64
2023/04/15 11:13:09;;;;;;;5.50;3.28;;;17.50;52.20;;;;;;5056499;28;20025;-65
2023/04/15 11:15:37;;;;;;;6.43;3.60;;;17.50;50.80;;;;;;5056622;28;20060;-64
2023/04/15 11:18:10;;;;;;;4.45;3.67;;;17.50;51.80;;;;;;5055446;28;20039;-64
2023/04/15 11:20:38;;;;;;;7.55;4.00;;;17.50;51.80;;;;;;5056753;28;20071;-66
2023/04/15 11:23:05;;;;;;;6.50;4.10;;;17.60;52.20;;;;;;5056280;28;20025;-65
2023/04/15 11:25:33;;;;;;;5.72;3.80;;;17.90;51.70;;;;;;5056515;28;20405;-66
2023/04/15 11:28:00;;;;;;;5.70;3.63;;;17.90;51.20;;;;;;5056654;28;20104;-65
2023/04/15 11:30:35;;;;;;;7.68;4.10;;;18.00;50.70;;;;;;5056245;28;20393;-67
2023/04/15 11:33:04;;;;;;;6.70;3.75;;;18.10;50.50;;;;;;5056349;28;20032;-66
2023/04/15 11:35:31;;;;;;;4.57;3.60;;;18.20;51.00;;;;;;5056315;28;20048;-66
2023/04/15 11:37:57;;;;;;;8.77;4.30;;;18.40;51.10;;;;;;5055785;28;20037;-66
2023/04/15 11:40:27;;;;;;;7.18;3.80;;;18.50;48.70;;;;;;5055903;28;20029;-66
2023/04/15 11:43:12;;;;;;;6.75;3.97;;;18.50;50.20;;;;;;5056236;28;20040;-66
2023/04/15 11:45:58;;;;;;;7.00;3.65;;;18.40;49.10;;;;;;5056202;28;20025;-65
2023/04/15 11:48:30;;;;;;;7.60;3.75;;;18.30;48.40;;;;;;5056107;28;20500;-67
2023/04/15 11:51:06;;;;;;;5.50;3.50;;;18.10;49.80;;;;;;5056011;28;20040;-65
2023/04/15 11:53:43;;;;;;;3.95;2.72;;;18.00;49.80;;;;;;5056128;28;20028;-65
2023/04/15 11:56:20;;;;;;;4.93;2.70;;;17.90;50.30;;;;;;5055957;28;20029;-65
2023/04/15 11:58:47;;;;;;;2.72;2.50;;;17.80;48.30;;;;;;5055909;28;20043;-65
2023/04/15 12:01:13;;;;;;;3.28;2.80;;;17.60;48.80;;;;;;5055792;28;20104;-66
2023/04/15 12:03:42;;;;;;;5.97;3.42;;;17.70;49.10;;;;;;5054629;28;20425;-67
2023/04/15 12:06:18;;;;;;;5.03;3.55;;;17.70;49.30;;;;;;5055838;28;20020;-67
2023/04/15 12:09:14;;;;;;;3.85;3.30;;;17.80;49.40;;;;;;5055338;28;20345;-66
2023/04/15 12:11:50;;;;;;;7.88;3.50;;;17.90;50.40;;;;;;5053233;28;20033;-65
2023/04/15 12:14:21;;;;;;;5.10;3.45;;;17.90;50.70;;;;;;5053691;28;20461;-64
2023/04/15 12:16:49;;;;;;;4.88;3.15;;;17.90;49.40;;;;;;5053666;28;20446;-65
2023/04/15 12:19:24;;;;;;;4.57;3.15;;;17.90;50.40;;;;;;5037267;28;20071;-65
2023/04/15 12:21:51;;;;;;;5.18;3.42;;;17.90;51.00;;;;;;5054104;28;20045;-65
2023/04/15 12:24:21;;;;;;;5.22;3.00;;;17.90;49.40;;;;;;5053997;28;20087;-65
2023/04/15 12:26:52;;;;;;;4.38;3.42;;;17.90;50.60;;;;;;5054287;28;20028;-65
2023/04/15 12:29:19;;;;;;;6.07;3.20;;;18.00;50.70;;;;;;5053248;28;20053;-65
2023/04/15 12:31:53;;;;;;;6.32;3.30;;;18.10;50.50;;;;;;5053397;28;20037;-65
2023/04/15 12:34:28;;;;;;;5.35;3.20;;;18.00;50.80;;;;;;5053897;28;20555;-66
2023/04/15 12:36:55;;;;;;;5.95;3.40;;;18.00;50.50;;;;;;5053266;28;20060;-65
2023/04/15 12:39:28;;;;;;;6.05;3.70;;;18.00;50.20;;;;;;5036932;28;20044;-65
2023/04/15 12:41:54;;;;;;;7.45;3.30;;;17.90;50.80;;;;;;5053698;28;20033;-66
2023/04/15 12:44:22;;;;;;;5.40;3.30;;;17.90;51.50;;;;;;5053500;28;20027;-67
2023/04/15 12:46:49;;;;;;;7.07;3.50;;;17.90;51.80;;;;;;5036789;28;20044;-66
2023/04/15 12:49:15;;;;;;;5.70;3.20;;;17.90;51.10;;;;;;5054332;28;20047;-65
2023/04/15 12:51:41;;;;;;;4.13;2.45;;;17.70;50.00;;;;;;5054811;28;20017;-65
2023/04/15 12:54:07;;;;;;;3.35;2.80;;;17.70;49.40;;;;;;5054861;28;20435;-65